Time;durP1;ratioP1;P1;durP2;ratioP2;P2;SDS_P1;SDS_P2;PMS_P1;PMS_P2;Temp;Humidity;BMP_temperature;BMP_pressure;BME280_temperature;BME280_humidity;BME280_pressure;Samples;Min_cycle;Max_cycle;Signal;HPM_P1;HPM_P2
2022/04/19 00:01:59;;;;;;;3.90;2.83;;;7.70;77.40;;;;;;5114191;28;20795;-77
2022/04/19 00:04:45;;;;;;;3.50;2.90;;;7.60;76.90;;;;;;5118812;28;20414;-78
2022/04/19 00:07:31;;;;;;;4.93;3.80;;;7.40;78.00;;;;;;5115602;28;20441;-76
2022/04/19 00:10:17;;;;;;;4.23;3.00;;;7.20;77.60;;;;;;5115135;28;20801;-75
2022/04/19 00:13:04;;;;;;;4.20;3.23;;;7.00;78.90;;;;;;5117486;28;20434;-75
2022/04/19 00:15:50;;;;;;;5.17;3.10;;;6.90;80.00;;;;;;5114632;28;20414;-76
2022/04/19 00:18:37;;;;;;;7.60;3.77;;;6.90;80.40;;;;;;5113634;28;20508;-77
2022/04/19 00:21:23;;;;;;;5.30;3.30;;;6.80;80.40;;;;;;5115053;28;20459;-76
2022/04/19 00:24:09;;;;;;;6.00;3.50;;;6.90;80.50;;;;;;5113245;28;20423;-75
2022/04/19 00:26:55;;;;;;;5.33;3.27;;;6.90;80.60;;;;;;5114340;28;20418;-77
2022/04/19 00:29:41;;;;;;;6.13;3.43;;;7.20;80.10;;;;;;5111847;28;20527;-76
2022/04/19 00:32:27;;;;;;;4.13;3.17;;;7.20;80.10;;;;;;5112275;28;20882;-76
2022/04/19 00:35:20;;;;;;;6.43;3.30;;;7.40;79.20;;;;;;5107791;28;20872;-76
2022/04/19 00:38:06;;;;;;;5.40;3.40;;;7.30;79.10;;;;;;5109800;28;20492;-81
2022/04/19 00:40:52;;;;;;;4.80;3.20;;;7.10;79.20;;;;;;5116118;28;20538;-76
2022/04/19 00:43:40;;;;;;;6.73;3.50;;;7.10;79.00;;;;;;5102939;28;20415;-76
2022/04/19 00:46:26;;;;;;;6.03;3.30;;;7.00;79.50;;;;;;5111748;28;20511;-77
2022/04/19 00:49:15;;;;;;;4.93;2.60;;;7.00;79.80;;;;;;5104132;28;20446;-76
2022/04/19 00:52:03;;;;;;;4.40;3.17;;;7.00;80.10;;;;;;5111676;28;20421;-77
2022/04/19 00:54:49;;;;;;;3.77;2.90;;;7.00;79.30;;;;;;5117470;28;20958;-76
2022/04/19 00:57:35;;;;;;;3.47;2.73;;;7.00;78.90;;;;;;5111573;28;20450;-77
2022/04/19 01:00:21;;;;;;;4.00;2.90;;;6.90;79.60;;;;;;5116294;28;20520;-77
2022/04/19 01:03:07;;;;;;;4.03;3.03;;;6.80;80.10;;;;;;5107068;28;20584;-76
2022/04/19 01:05:55;;;;;;;7.30;3.37;;;6.60;81.30;;;;;;5110466;28;20501;-77
2022/04/19 01:08:44;;;;;;;4.60;2.80;;;6.50;82.10;;;;;;5111797;28;20421;-77
2022/04/19 01:14:36;;;;;;;4.17;2.70;;;6.50;82.90;;;;;;5111174;28;20438;-77
2022/04/19 01:17:22;;;;;;;3.90;2.67;;;6.70;82.30;;;;;;5102647;28;20482;-76
2022/04/19 01:20:09;;;;;;;5.53;2.53;;;6.90;81.20;;;;;;5117369;28;20433;-76
2022/04/19 01:22:56;;;;;;;4.80;2.80;;;7.00;80.50;;;;;;5107403;28;20469;-76
2022/04/19 01:25:42;;;;;;;5.30;2.97;;;7.10;80.20;;;;;;5109254;28;20790;-75
2022/04/19 01:28:28;;;;;;;4.63;3.13;;;6.90;80.30;;;;;;5107645;28;20416;-77
2022/04/19 01:31:14;;;;;;;3.57;2.97;;;6.90;80.40;;;;;;5102004;28;20433;-76
2022/04/19 01:34:03;;;;;;;4.13;2.80;;;6.80;80.00;;;;;;5105039;28;20407;-76
2022/04/19 01:36:50;;;;;;;3.53;2.70;;;6.60;80.60;;;;;;5107044;28;20428;-76
2022/04/19 01:42:43;;;;;;;4.23;2.70;;;6.40;82.50;;;;;;5106054;28;20524;-77
2022/04/19 01:45:31;;;;;;;4.57;3.20;;;6.30;82.80;;;;;;5101500;28;20537;-77
2022/04/19 01:48:16;;;;;;;11.90;3.00;;;6.20;83.10;;;;;;5098993;28;20433;-75
2022/04/19 01:51:02;;;;;;;8.23;2.70;;;6.20;83.70;;;;;;5105245;28;20442;-77
2022/04/19 01:53:48;;;;;;;4.63;3.10;;;6.00;84.20;;;;;;5102216;28;20468;-77
2022/04/19 01:56:35;;;;;;;4.83;3.03;;;6.00;85.30;;;;;;5108660;28;20546;-76
2022/04/19 01:59:21;;;;;;;4.90;3.70;;;6.00;85.20;;;;;;5103580;28;20602;-77
2022/04/19 02:02:08;;;;;;;6.77;3.37;;;5.90;85.20;;;;;;5100398;28;20485;-76
2022/04/19 02:04:54;;;;;;;7.27;3.80;;;5.90;85.20;;;;;;5104105;28;20445;-75
2022/04/19 02:07:41;;;;;;;4.63;2.70;;;5.90;85.90;;;;;;5100814;28;20599;-74
2022/04/19 02:10:27;;;;;;;5.80;2.83;;;5.80;86.40;;;;;;5100901;28;20461;-77
2022/04/19 02:13:14;;;;;;;6.70;3.53;;;5.80;86.70;;;;;;5097428;28;20964;-77
2022/04/19 02:16:00;;;;;;;4.07;3.10;;;5.80;86.70;;;;;;5097733;28;20417;-76
2022/04/19 02:18:45;;;;;;;7.13;3.90;;;5.80;86.80;;;;;;5107846;28;20419;-77
2022/04/19 02:21:32;;;;;;;5.00;3.50;;;5.80;86.70;;;;;;5099885;28;20397;-77
2022/04/19 02:24:17;;;;;;;4.77;3.07;;;5.90;86.20;;;;;;5099531;28;20818;-75
2022/04/19 02:27:05;;;;;;;6.93;3.20;;;6.00;86.50;;;;;;5094752;28;20439;-76
2022/04/19 02:29:52;;;;;;;7.00;2.83;;;6.10;84.90;;;;;;5095488;28;21404;-76
2022/04/19 02:32:38;;;;;;;5.43;3.07;;;6.20;84.40;;;;;;5103063;28;20554;-77
2022/04/19 02:35:23;;;;;;;5.93;2.83;;;6.10;84.50;;;;;;5099677;28;20442;-77
2022/04/19 02:38:09;;;;;;;4.93;2.80;;;6.00;83.90;;;;;;5100842;28;20429;-76
2022/04/19 02:40:55;;;;;;;6.17;2.93;;;5.90;84.20;;;;;;5108849;28;20437;-77
2022/04/19 02:43:40;;;;;;;3.90;3.07;;;5.80;85.50;;;;;;5104608;28;20482;-77
2022/04/19 02:46:29;;;;;;;5.50;2.50;;;5.80;85.70;;;;;;5104599;28;20425;-76
2022/04/19 02:49:15;;;;;;;4.60;2.90;;;5.70;85.50;;;;;;5106887;28;20520;-76
2022/04/19 02:52:01;;;;;;;4.70;3.20;;;5.50;86.50;;;;;;5104904;28;20436;-76
2022/04/19 02:54:47;;;;;;;7.60;3.70;;;5.50;87.30;;;;;;5102078;28;20506;-77
2022/04/19 02:57:33;;;;;;;4.13;3.37;;;5.40;88.30;;;;;;5101254;28;20427;-77
2022/04/19 03:00:20;;;;;;;4.57;3.40;;;5.50;87.80;;;;;;5098328;28;20481;-76
2022/04/19 03:03:09;;;;;;;5.30;3.97;;;5.60;88.20;;;;;;5107256;28;20969;-76
2022/04/19 03:05:56;;;;;;;5.57;3.60;;;5.80;87.00;;;;;;5108322;28;20417;-77
2022/04/19 03:08:42;;;;;;;5.47;3.13;;;5.90;85.30;;;;;;5106561;28;20439;-77
2022/04/19 03:11:28;;;;;;;5.53;3.10;;;6.00;85.20;;;;;;5102175;28;20506;-76
2022/04/19 03:14:14;;;;;;;5.33;3.13;;;5.90;85.00;;;;;;5103481;28;20449;-77
2022/04/19 03:17:00;;;;;;;4.60;3.13;;;5.70;86.20;;;;;;5098427;28;20892;-75
2022/04/19 03:19:47;;;;;;;4.10;2.90;;;5.60;86.60;;;;;;5107571;28;20499;-77
2022/04/19 03:28:35;;;;;;;3.93;2.70;;;5.50;87.60;;;;;;5103750;28;20405;-76
2022/04/19 03:31:22;;;;;;;4.20;3.03;;;5.70;87.70;;;;;;5098035;28;20451;-77
2022/04/19 03:34:07;;;;;;;5.10;3.17;;;5.90;87.00;;;;;;5102371;28;20450;-77
2022/04/19 03:36:54;;;;;;;6.17;3.80;;;6.00;85.80;;;;;;5104123;28;20484;-76
2022/04/19 03:39:40;;;;;;;4.93;3.23;;;5.80;85.80;;;;;;5098075;28;20592;-76
2022/04/19 03:42:26;;;;;;;6.00;3.27;;;5.60;86.40;;;;;;5110217;28;20432;-75
2022/04/19 03:45:12;;;;;;;4.43;2.83;;;5.60;86.40;;;;;;5104803;28;20584;-77
2022/04/19 03:47:57;;;;;;;6.10;3.30;;;5.50;86.50;;;;;;5103909;28;20427;-77
2022/04/19 03:50:44;;;;;;;3.80;3.00;;;5.30;87.20;;;;;;5106904;28;20530;-77
2022/04/19 03:53:31;;;;;;;4.37;2.90;;;5.30;87.50;;;;;;5106604;28;20400;-77
2022/04/19 03:56:17;;;;;;;5.47;3.20;;;5.30;87.60;;;;;;5103312;28;20454;-77
2022/04/19 03:59:02;;;;;;;5.90;3.27;;;5.30;87.10;;;;;;5108641;28;20449;-76
2022/04/19 04:01:48;;;;;;;5.27;3.60;;;5.30;87.80;;;;;;5097039;28;20813;-75
2022/04/19 04:04:35;;;;;;;7.37;3.20;;;5.20;88.20;;;;;;5106038;28;20440;-77
2022/04/19 04:07:21;;;;;;;9.03;2.83;;;5.30;87.50;;;;;;5104118;28;20965;-74
2022/04/19 04:10:08;;;;;;;4.27;3.27;;;5.50;87.20;;;;;;5102449;28;20973;-77
2022/04/19 04:12:55;;;;;;;8.53;3.07;;;5.50;86.50;;;;;;5106033;28;20945;-75
2022/04/19 04:15:40;;;;;;;3.97;3.37;;;5.30;86.50;;;;;;5097741;28;20427;-76
2022/04/19 04:18:26;;;;;;;4.63;3.13;;;5.20;87.30;;;;;;5101107;28;20445;-77
2022/04/19 04:21:12;;;;;;;9.30;3.10;;;5.00;87.80;;;;;;5104619;28;20903;-76
2022/04/19 04:23:57;;;;;;;3.77;2.90;;;4.90;89.20;;;;;;5102106;28;20837;-76
2022/04/19 04:26:45;;;;;;;3.43;2.63;;;4.90;90.10;;;;;;5102260;28;20565;-76
2022/04/19 04:29:31;;;;;;;5.80;3.20;;;5.00;89.50;;;;;;5103312;28;20409;-77
2022/04/19 04:32:16;;;;;;;4.13;2.90;;;5.00;89.70;;;;;;5098134;28;20459;-77
2022/04/19 04:35:02;;;;;;;5.53;2.83;;;5.00;89.90;;;;;;5106973;28;20548;-77
2022/04/19 04:37:48;;;;;;;3.43;2.80;;;5.00;89.70;;;;;;5103366;28;20407;-75
2022/04/19 04:40:33;;;;;;;4.10;2.97;;;4.90;90.10;;;;;;5108000;28;20950;-77
2022/04/19 04:43:20;;;;;;;5.43;2.83;;;4.90;90.10;;;;;;5095899;28;20548;-77
2022/04/19 04:52:15;;;;;;;4.13;3.40;;;4.90;90.00;;;;;;5100605;28;20471;-77
2022/04/19 04:55:00;;;;;;;5.00;2.80;;;5.00;90.00;;;;;;5104245;28;20946;-76
2022/04/19 04:57:46;;;;;;;8.23;2.57;;;5.20;90.00;;;;;;5101957;28;20992;-77
2022/04/19 05:00:33;;;;;;;7.00;3.10;;;5.30;89.60;;;;;;5096906;28;20822;-77
2022/04/19 05:03:18;;;;;;;8.50;3.80;;;5.30;89.50;;;;;;5105707;28;20440;-77
2022/04/19 05:06:04;;;;;;;3.53;3.07;;;5.20;89.60;;;;;;5100736;28;20527;-77
2022/04/19 05:08:49;;;;;;;4.90;2.60;;;5.20;90.10;;;;;;5106292;28;20459;-76
2022/04/19 05:11:35;;;;;;;5.30;3.10;;;5.20;90.30;;;;;;5096604;28;20782;-76
2022/04/19 05:14:22;;;;;;;4.17;2.97;;;5.30;90.30;;;;;;5100406;28;20455;-73
2022/04/19 05:17:10;;;;;;;12.53;3.27;;;5.50;90.30;;;;;;5100786;28;20514;-76
2022/04/19 05:19:55;;;;;;;4.70;3.40;;;5.70;90.40;;;;;;5098995;28;20462;-77
2022/04/19 05:22:41;;;;;;;4.70;3.20;;;5.90;90.50;;;;;;5105819;28;20544;-76
2022/04/19 05:25:27;;;;;;;9.07;3.10;;;6.10;90.30;;;;;;5101376;28;20424;-73
2022/04/19 05:28:12;;;;;;;4.60;2.93;;;6.20;89.60;;;;;;5104588;28;20416;-75
2022/04/19 05:30:58;;;;;;;6.63;2.57;;;6.20;90.00;;;;;;5101767;28;20437;-76
2022/04/19 05:33:45;;;;;;;5.03;3.10;;;6.30;90.30;;;;;;5099068;28;20416;-76
2022/04/19 05:36:31;;;;;;;5.83;3.77;;;6.30;90.00;;;;;;5101394;28;20453;-76
2022/04/19 05:39:16;;;;;;;4.50;3.17;;;6.30;90.00;;;;;;5094900;28;20423;-76
2022/04/19 05:42:02;;;;;;;3.63;2.73;;;6.50;90.00;;;;;;5105458;28;20472;-76
2022/04/19 05:44:48;;;;;;;6.83;3.20;;;6.70;89.40;;;;;;5094947;28;20402;-74
2022/04/19 05:47:33;;;;;;;9.60;3.20;;;6.90;88.80;;;;;;5100198;28;20493;-76
2022/04/19 05:50:21;;;;;;;5.37;2.90;;;7.00;88.00;;;;;;5103063;28;20570;-77
2022/04/19 05:53:06;;;;;;;5.43;3.73;;;7.00;88.00;;;;;;5101693;28;20476;-76
2022/04/19 05:55:53;;;;;;;4.63;3.87;;;7.10;88.70;;;;;;5101928;28;20444;-77
2022/04/19 05:58:39;;;;;;;6.30;3.90;;;7.10;89.60;;;;;;5101572;28;21280;-77
2022/04/19 06:01:25;;;;;;;5.97;4.10;;;7.20;89.50;;;;;;5096364;28;21126;-77
2022/04/19 06:07:15;;;;;;;7.67;4.00;;;7.40;89.50;;;;;;5108676;28;20479;-76
2022/04/19 06:10:01;;;;;;;4.93;3.70;;;7.50;90.00;;;;;;5100048;28;20516;-76
2022/04/19 06:12:46;;;;;;;4.43;3.77;;;7.70;89.60;;;;;;5103138;28;20418;-76
2022/04/19 06:15:32;;;;;;;7.03;4.23;;;7.90;89.20;;;;;;5103141;28;20496;-76
2022/04/19 06:18:18;;;;;;;6.70;3.90;;;7.90;88.40;;;;;;5105364;28;20438;-77
2022/04/19 06:21:04;;;;;;;5.83;4.20;;;7.80;87.50;;;;;;5110789;28;20453;-76
2022/04/19 06:23:52;;;;;;;5.93;4.33;;;7.80;87.80;;;;;;5105969;28;20470;-77
2022/04/19 06:26:39;;;;;;;11.17;4.90;;;7.80;87.70;;;;;;5107545;28;20995;-76
2022/04/19 06:29:24;;;;;;;5.57;3.90;;;8.00;88.50;;;;;;5104695;28;20537;-76
2022/04/19 06:32:11;;;;;;;5.77;4.40;;;8.10;88.20;;;;;;5103765;28;20420;-76
2022/04/19 06:34:57;;;;;;;8.03;4.20;;;8.30;89.30;;;;;;5102518;28;20953;-77
2022/04/19 06:37:43;;;;;;;8.53;4.23;;;8.40;89.30;;;;;;5100183;28;20430;-76
2022/04/19 06:40:30;;;;;;;7.63;5.10;;;8.60;88.90;;;;;;5109052;28;20466;-77
2022/04/19 06:43:16;;;;;;;9.27;4.97;;;8.80;85.20;;;;;;5109145;28;20873;-75
2022/04/19 06:46:01;;;;;;;10.37;5.70;;;9.00;85.40;;;;;;5102455;28;20537;-76
2022/04/19 06:48:47;;;;;;;8.70;4.93;;;9.10;87.00;;;;;;5098177;28;20436;-77
2022/04/19 06:51:33;;;;;;;9.10;4.97;;;9.20;86.10;;;;;;5105782;28;20423;-76
2022/04/19 06:54:19;;;;;;;6.33;4.67;;;9.30;86.30;;;;;;5102599;28;20448;-77
2022/04/19 06:57:06;;;;;;;10.97;4.73;;;9.40;85.90;;;;;;5101329;28;20504;-76
2022/04/19 06:59:52;;;;;;;5.20;4.20;;;9.50;86.50;;;;;;5107682;28;20430;-75
2022/04/19 07:02:37;;;;;;;10.73;5.00;;;9.70;87.40;;;;;;5114258;28;20978;-76
2022/04/19 07:05:23;;;;;;;6.43;4.43;;;9.80;87.10;;;;;;5102646;28;20448;-76
2022/04/19 07:08:09;;;;;;;7.60;4.60;;;9.90;86.50;;;;;;5107146;28;20416;-75
2022/04/19 07:10:55;;;;;;;8.63;4.93;;;10.10;84.80;;;;;;5105333;28;20465;-76
2022/04/19 07:13:42;;;;;;;6.47;4.53;;;10.20;84.30;;;;;;5103852;28;20408;-75
2022/04/19 07:16:28;;;;;;;5.93;3.97;;;10.30;83.50;;;;;;5106814;28;20443;-77
2022/04/19 07:19:14;;;;;;;9.43;3.30;;;10.50;81.60;;;;;;5104105;28;20411;-76
2022/04/19 07:28:06;;;;;;;6.37;4.07;;;11.00;78.30;;;;;;5098940;28;20463;-76
2022/04/19 07:30:53;;;;;;;4.90;3.33;;;11.20;78.40;;;;;;5107152;28;20940;-77
2022/04/19 07:33:39;;;;;;;5.63;3.63;;;11.30;76.80;;;;;;5096770;28;20558;-76
2022/04/19 07:36:25;;;;;;;4.83;3.20;;;11.50;77.80;;;;;;5107289;28;20925;-74
2022/04/19 07:39:11;;;;;;;8.30;3.50;;;11.60;76.50;;;;;;5101284;28;20459;-77
2022/04/19 07:41:57;;;;;;;5.73;3.50;;;11.80;75.90;;;;;;5102794;28;20575;-77
2022/04/19 07:44:44;;;;;;;5.53;3.53;;;11.90;75.60;;;;;;5102207;28;20476;-75
2022/04/19 07:47:33;;;;;;;4.13;3.33;;;12.10;72.90;;;;;;5104105;28;20419;-76
2022/04/19 07:50:19;;;;;;;4.80;3.30;;;12.20;70.70;;;;;;5104789;28;20452;-77
2022/04/19 07:53:05;;;;;;;7.00;2.87;;;12.20;69.60;;;;;;5101244;28;20453;-75
2022/04/19 07:55:51;;;;;;;5.03;3.27;;;12.30;69.30;;;;;;5109509;28;20403;-76
2022/04/19 07:58:37;;;;;;;4.70;2.90;;;12.30;67.20;;;;;;5109201;28;20460;-75
2022/04/19 08:01:23;;;;;;;6.50;3.00;;;12.40;65.90;;;;;;5104945;28;20860;-74
2022/04/19 08:04:10;;;;;;;7.67;3.90;;;12.40;64.60;;;;;;5104608;28;20546;-74
2022/04/19 08:06:57;;;;;;;5.10;2.83;;;12.60;62.50;;;;;;5099500;28;20417;-74
2022/04/19 08:09:43;;;;;;;5.20;2.93;;;12.70;61.50;;;;;;5105207;28;20502;-74
2022/04/19 08:12:29;;;;;;;4.43;2.90;;;12.80;60.90;;;;;;5104522;28;20503;-73
2022/04/19 08:15:14;;;;;;;5.20;3.30;;;12.90;59.30;;;;;;5103001;28;20965;-74
2022/04/19 08:18:00;;;;;;;3.33;2.37;;;13.10;58.60;;;;;;5101031;28;20570;-74
2022/04/19 08:20:47;;;;;;;6.07;2.90;;;13.20;57.90;;;;;;5102542;28;20547;-74
2022/04/19 08:23:33;;;;;;;7.77;3.10;;;13.30;55.00;;;;;;5098153;28;20457;-73
2022/04/19 08:26:19;;;;;;;5.40;3.13;;;13.40;54.20;;;;;;5101015;28;20420;-74
2022/04/19 08:29:06;;;;;;;3.73;2.60;;;13.60;54.70;;;;;;5094566;28;20437;-74
2022/04/19 08:31:51;;;;;;;5.07;3.27;;;13.70;52.00;;;;;;5103377;28;20411;-73
2022/04/19 08:34:38;;;;;;;5.17;2.90;;;13.90;52.80;;;;;;5101838;28;20408;-74
2022/04/19 08:37:29;;;;;;;3.70;2.37;;;14.00;52.10;;;;;;5097913;28;20446;-74
2022/04/19 08:40:16;;;;;;;2.70;2.00;;;14.10;50.90;;;;;;5097666;28;20443;-74
2022/04/19 08:43:02;;;;;;;4.07;2.10;;;14.30;50.50;;;;;;5095596;28;20445;-74
2022/04/19 08:45:47;;;;;;;5.20;2.13;;;14.50;49.50;;;;;;5101448;28;20437;-74
2022/04/19 08:48:35;;;;;;;7.93;2.60;;;14.60;51.30;;;;;;5102071;28;20943;-73
2022/04/19 08:51:21;;;;;;;5.43;2.63;;;14.70;49.20;;;;;;5100201;28;20543;-77
2022/04/19 09:00:15;;;;;;;6.00;3.20;;;15.00;48.30;;;;;;5102550;28;20500;-77
2022/04/19 09:03:02;;;;;;;7.80;3.20;;;15.10;49.30;;;;;;5105563;28;20419;-74
2022/04/19 09:05:52;;;;;;;4.50;3.30;;;15.20;44.20;;;;;;5109376;28;20564;-75
2022/04/19 09:08:38;;;;;;;4.70;3.20;;;15.30;47.20;;;;;;5102912;28;20449;-77
2022/04/19 09:11:34;;;;;;;6.60;3.33;;;15.40;46.30;;;;;;5102445;28;20524;-74
2022/04/19 09:14:22;;;;;;;8.57;4.50;;;15.50;48.50;;;;;;5105624;28;20507;-72
2022/04/19 09:17:09;;;;;;;8.13;4.10;;;15.70;42.40;;;;;;5087390;22;20491;-74
2022/04/19 09:20:07;;;;;;;9.10;3.83;;;15.80;40.40;;;;;;5047377;28;20430;-73
2022/04/19 09:23:02;;;;;;;6.00;3.87;;;15.90;43.90;;;;;;5049864;28;20434;-74
2022/04/19 09:25:50;;;;;;;7.27;4.40;;;16.00;42.30;;;;;;5049747;28;20409;-74
2022/04/19 09:28:38;;;;;;;6.13;3.50;;;16.20;42.20;;;;;;5048706;28;20418;-74
2022/04/19 09:31:31;;;;;;;6.90;3.80;;;16.30;39.30;;;;;;5046959;28;20414;-74
2022/04/19 09:34:25;;;;;;;7.60;4.00;;;16.30;43.70;;;;;;5051779;28;20413;-74
2022/04/19 09:37:13;;;;;;;5.20;3.30;;;16.30;41.80;;;;;;5049998;28;20474;-73
2022/04/19 09:39:59;;;;;;;11.73;4.27;;;16.40;43.40;;;;;;5045685;28;20431;-73
2022/04/19 09:42:45;;;;;;;7.17;4.60;;;16.40;39.20;;;;;;5048447;28;20476;-73
2022/04/19 09:45:46;;;;;;;5.23;3.83;;;16.10;37.20;;;;;;5051525;28;20445;-74
2022/04/19 09:48:33;;;;;;;6.17;4.27;;;16.00;40.70;;;;;;5046745;28;20492;-74
2022/04/19 09:51:19;;;;;;;6.97;4.97;;;16.00;39.40;;;;;;5050054;28;20441;-74
2022/04/19 09:54:06;;;;;;;7.33;4.27;;;16.00;37.30;;;;;;5046788;28;20514;-74
2022/04/19 09:56:53;;;;;;;8.53;4.80;;;16.00;39.50;;;;;;5047022;28;20552;-74
2022/04/19 09:59:47;;;;;;;7.43;5.13;;;16.00;38.10;;;;;;5032884;28;20423;-74
2022/04/19 10:08:42;;;;;;;8.63;5.83;;;16.50;35.80;;;;;;5050877;28;20415;-74
2022/04/19 10:11:29;;;;;;;9.50;5.40;;;16.60;35.50;;;;;;5049459;28;20570;-74
2022/04/19 10:14:18;;;;;;;9.50;5.63;;;16.80;36.10;;;;;;5054498;28;20414;-74
2022/04/19 10:17:06;;;;;;;9.70;5.93;;;17.00;32.30;;;;;;5043724;28;20513;-73
2022/04/19 10:19:53;;;;;;;9.80;5.90;;;17.10;32.40;;;;;;5045822;28;20442;-74
2022/04/19 10:22:46;;;;;;;8.33;5.67;;;17.20;31.30;;;;;;5038944;28;20447;-73
2022/04/19 10:25:40;;;;;;;7.97;5.60;;;17.20;32.00;;;;;;5043154;28;20989;-73
2022/04/19 10:28:27;;;;;;;9.00;5.90;;;17.20;31.60;;;;;;5048430;28;20448;-73
2022/04/19 10:31:14;;;;;;;9.50;5.77;;;17.20;31.00;;;;;;5044145;28;20418;-73
2022/04/19 10:34:03;;;;;;;9.83;6.40;;;17.30;32.00;;;;;;5050141;28;20447;-73
2022/04/19 10:36:54;;;;;;;8.60;5.40;;;17.40;30.70;;;;;;5047300;28;21183;-73
2022/04/19 10:39:45;;;;;;;10.20;6.03;;;17.50;32.40;;;;;;5045353;28;20410;-72
2022/04/19 10:42:33;;;;;;;10.33;6.47;;;17.50;31.00;;;;;;5048824;28;20442;-72
2022/04/19 10:45:25;;;;;;;9.47;5.10;;;17.60;32.00;;;;;;5053359;28;20868;-72
2022/04/19 10:48:14;;;;;;;7.40;4.80;;;17.80;30.00;;;;;;5040878;28;20520;-72
2022/04/19 10:51:29;;;;;;;7.10;5.20;;;18.00;32.50;;;;;;5046368;28;20443;-71
2022/04/19 10:54:15;;;;;;;8.10;5.97;;;18.10;28.60;;;;;;5051493;28;20584;-71
2022/04/19 10:58:05;;;;;;;10.70;5.43;;;18.30;28.20;;;;;;5049193;28;20463;-71
2022/04/19 11:00:27;;;;;;;10.13;6.77;;;18.50;29.10;;;;;;5049804;28;20559;-71
2022/04/19 11:03:14;;;;;;;7.63;5.90;;;18.50;27.80;;;;;;5050888;28;20455;-72
2022/04/19 11:06:02;;;;;;;7.40;5.80;;;18.60;29.10;;;;;;5053565;28;20471;-71
2022/04/19 11:08:49;;;;;;;8.30;6.60;;;18.70;30.90;;;;;;5051030;28;20786;-72
2022/04/19 11:11:50;;;;;;;8.40;6.43;;;18.80;30.00;;;;;;5050435;28;20809;-73
2022/04/19 11:14:40;;;;;;;9.67;5.57;;;19.00;29.50;;;;;;5053376;28;21074;-73
2022/04/19 11:17:28;;;;;;;7.97;5.70;;;19.10;31.20;;;;;;5053597;28;20475;-73
2022/04/19 11:20:15;;;;;;;7.40;5.43;;;19.20;27.70;;;;;;5049152;28;20883;-73
2022/04/19 11:23:18;;;;;;;6.77;4.60;;;19.30;27.70;;;;;;5048729;28;20447;-74
2022/04/19 11:26:04;;;;;;;6.20;4.03;;;19.40;30.00;;;;;;5050204;28;20475;-73
2022/04/19 11:29:16;;;;;;;8.20;5.83;;;19.50;29.50;;;;;;5051587;28;20495;-73
2022/04/19 11:32:08;;;;;;;6.93;5.00;;;19.70;29.70;;;;;;5045102;28;20816;-73
2022/04/19 11:35:04;;;;;;;8.30;5.70;;;19.70;27.50;;;;;;5051642;28;20511;-74
2022/04/19 11:37:50;;;;;;;6.60;4.73;;;19.60;27.70;;;;;;5053340;28;20417;-73
2022/04/19 11:46:53;;;;;;;7.80;5.10;;;19.70;26.40;;;;;;5051497;28;20521;-73
2022/04/19 11:49:39;;;;;;;8.77;4.90;;;19.70;26.20;;;;;;5053763;28;20424;-73
2022/04/19 11:52:26;;;;;;;7.07;5.00;;;19.70;25.40;;;;;;5044755;28;20952;-73
2022/04/19 11:55:16;;;;;;;9.33;5.90;;;19.70;25.90;;;;;;5050658;28;20806;-74
2022/04/19 11:58:05;;;;;;;7.30;5.10;;;19.50;26.00;;;;;;5045344;28;20549;-73
2022/04/19 12:01:03;;;;;;;8.30;5.23;;;19.60;26.50;;;;;;5050161;28;20765;-73
2022/04/19 12:03:50;;;;;;;9.93;4.80;;;19.70;26.20;;;;;;5052181;28;20555;-73
2022/04/19 12:06:36;;;;;;;8.07;5.70;;;19.90;27.70;;;;;;5053068;28;20463;-74
2022/04/19 12:09:22;;;;;;;8.67;5.20;;;19.90;26.30;;;;;;5052676;28;20514;-74
2022/04/19 12:12:10;;;;;;;7.73;5.17;;;19.90;25.80;;;;;;5049873;28;21142;-74
2022/04/19 12:14:56;;;;;;;9.80;6.07;;;19.80;26.30;;;;;;5051666;28;20411;-74
2022/04/19 12:17:45;;;;;;;5.90;4.60;;;19.70;25.80;;;;;;5053354;28;20454;-74
2022/04/19 12:20:43;;;;;;;9.50;5.33;;;19.80;27.10;;;;;;5046913;28;20817;-74
2022/04/19 12:23:29;;;;;;;8.13;6.00;;;19.90;25.50;;;;;;5049785;28;20432;-73
2022/04/19 12:26:14;;;;;;;8.93;5.30;;;20.00;26.20;;;;;;5048666;28;20480;-73
2022/04/19 12:29:12;;;;;;;8.80;5.80;;;20.00;26.40;;;;;;5051511;28;20423;-73
2022/04/19 12:32:00;;;;;;;8.10;4.97;;;20.10;24.70;;;;;;5043727;28;20491;-74
2022/04/19 12:34:46;;;;;;;8.60;5.30;;;20.20;26.60;;;;;;5052094;28;20403;-73
2022/04/19 12:37:33;;;;;;;6.67;4.37;;;20.30;26.00;;;;;;5049566;28;20569;-74
2022/04/19 12:40:27;;;;;;;7.30;5.77;;;20.40;26.80;;;;;;5050279;28;20455;-73
2022/04/19 12:43:14;;;;;;;7.73;5.37;;;20.40;25.30;;;;;;5049866;28;20423;-73
2022/04/19 12:46:05;;;;;;;8.43;4.97;;;20.50;24.90;;;;;;5048511;28;20475;-73
2022/04/19 12:48:54;;;;;;;8.50;6.30;;;20.60;24.80;;;;;;5051395;28;20784;-73
2022/04/19 12:51:40;;;;;;;10.03;6.10;;;20.70;26.10;;;;;;5045394;28;20443;-73
2022/04/19 12:54:28;;;;;;;8.10;5.60;;;20.80;25.70;;;;;;5050476;28;20494;-73
2022/04/19 12:57:35;;;;;;;7.67;5.60;;;21.30;26.20;;;;;;5048873;28;20451;-74
2022/04/19 13:00:22;;;;;;;7.87;5.00;;;21.60;24.30;;;;;;5045597;28;20529;-73
2022/04/19 13:03:08;;;;;;;8.80;6.23;;;21.80;25.20;;;;;;5047460;28;20566;-74
2022/04/19 13:12:19;;;;;;;7.23;5.60;;;22.50;23.40;;;;;;5047590;28;20912;-73
2022/04/19 13:15:07;;;;;;;7.73;5.60;;;22.50;23.20;;;;;;5045827;28;20938;-73
2022/04/19 13:17:52;;;;;;;9.87;6.17;;;22.70;24.10;;;;;;5051866;28;20458;-73
2022/04/19 13:20:38;;;;;;;15.63;6.13;;;22.70;22.40;;;;;;5051498;28;20862;-73
2022/04/19 13:23:24;;;;;;;10.03;5.90;;;22.30;23.10;;;;;;5050432;28;20471;-73
2022/04/19 13:26:09;;;;;;;8.83;6.50;;;22.40;22.90;;;;;;5048309;28;20471;-73
2022/04/19 13:28:57;;;;;;;8.70;5.40;;;22.60;22.90;;;;;;5050385;28;21066;-73
2022/04/19 13:31:43;;;;;;;7.23;4.70;;;22.80;23.10;;;;;;5052517;28;20804;-73
2022/04/19 13:34:28;;;;;;;6.47;4.93;;;22.80;22.70;;;;;;5047898;28;20439;-73
2022/04/19 13:37:15;;;;;;;7.37;4.50;;;22.50;21.50;;;;;;5049243;28;20598;-72
2022/04/19 13:40:01;;;;;;;8.20;5.57;;;22.30;21.60;;;;;;5050696;28;20947;-73
2022/04/19 13:42:47;;;;;;;6.50;4.13;;;22.40;22.70;;;;;;5058607;28;20415;-73
2022/04/19 13:45:35;;;;;;;6.40;4.70;;;22.70;22.70;;;;;;5050704;28;20941;-73
2022/04/19 13:48:20;;;;;;;7.00;4.50;;;22.70;22.00;;;;;;5046633;28;20423;-73
2022/04/19 13:51:06;;;;;;;9.00;4.57;;;22.60;22.20;;;;;;5045699;28;20452;-73
2022/04/19 13:53:52;;;;;;;6.37;4.00;;;22.60;22.30;;;;;;5048486;28;20782;-73
2022/04/19 13:56:38;;;;;;;4.33;2.60;;;22.70;21.90;;;;;;5050582;28;20801;-73
2022/04/19 13:59:24;;;;;;;7.07;3.90;;;22.80;21.70;;;;;;5046330;28;20456;-73
2022/04/19 14:02:12;;;;;;;6.43;3.70;;;22.80;21.10;;;;;;5045524;28;20435;-73
2022/04/19 14:04:59;;;;;;;3.70;2.90;;;22.70;20.00;;;;;;5049955;28;20835;-74
2022/04/19 14:07:44;;;;;;;4.63;2.83;;;22.80;21.20;;;;;;5050334;28;20446;-74
2022/04/19 14:10:30;;;;;;;5.60;2.70;;;22.70;21.20;;;;;;5042461;28;20447;-73
2022/04/19 14:13:16;;;;;;;5.60;3.30;;;22.70;21.20;;;;;;5038564;28;20494;-73
2022/04/19 14:16:01;;;;;;;4.57;2.80;;;22.60;20.80;;;;;;5050038;28;20412;-74
2022/04/19 14:18:48;;;;;;;6.13;2.90;;;22.70;22.80;;;;;;5043045;28;22754;-73
2022/04/19 14:21:34;;;;;;;4.30;2.90;;;22.90;21.80;;;;;;5058837;28;20423;-74
2022/04/19 14:24:21;;;;;;;4.57;2.63;;;23.10;21.30;;;;;;5047309;28;20432;-74
2022/04/19 14:27:06;;;;;;;3.30;2.37;;;23.20;22.60;;;;;;5050692;28;20575;-73
2022/04/19 14:36:01;;;;;;;5.77;2.00;;;22.80;20.80;;;;;;5048896;28;20400;-73
2022/04/19 14:38:46;;;;;;;3.43;2.00;;;22.80;21.90;;;;;;5052603;28;20968;-73
2022/04/19 14:41:32;;;;;;;3.00;1.90;;;22.70;21.60;;;;;;5055399;28;20421;-73
2022/04/19 14:44:18;;;;;;;4.20;1.80;;;22.70;21.50;;;;;;5054400;28;20542;-73
2022/04/19 14:47:03;;;;;;;8.70;2.40;;;22.80;21.40;;;;;;5054593;28;20545;-73
2022/04/19 14:49:49;;;;;;;2.70;1.60;;;22.80;21.50;;;;;;5051439;28;20463;-73
2022/04/19 14:52:36;;;;;;;2.57;1.60;;;22.80;21.10;;;;;;5057152;28;20423;-73
2022/04/19 14:55:22;;;;;;;4.90;1.90;;;22.90;22.70;;;;;;5053910;28;20470;-73
2022/04/19 14:58:08;;;;;;;19.10;1.67;;;23.00;21.30;;;;;;5048936;28;20452;-73
2022/04/19 15:00:54;;;;;;;2.47;1.30;;;22.80;21.10;;;;;;5063295;28;20612;-73
2022/04/19 15:03:40;;;;;;;2.23;1.30;;;22.70;21.20;;;;;;5052535;28;20447;-73
2022/04/19 15:06:25;;;;;;;4.67;1.93;;;22.80;21.40;;;;;;5049758;28;20498;-73
2022/04/19 15:09:12;;;;;;;2.80;1.67;;;22.80;20.60;;;;;;5050397;28;20972;-73
2022/04/19 15:11:59;;;;;;;5.03;2.20;;;22.70;20.90;;;;;;5048459;28;20416;-73
2022/04/19 15:14:45;;;;;;;11.13;1.50;;;22.60;20.80;;;;;;5052507;28;20423;-73
2022/04/19 15:17:31;;;;;;;4.10;1.90;;;22.40;21.60;;;;;;5054461;28;20804;-74
2022/04/19 15:20:16;;;;;;;2.73;1.40;;;22.30;22.40;;;;;;5063571;28;20433;-75
2022/04/19 15:23:02;;;;;;;4.60;1.40;;;22.00;22.40;;;;;;5034054;28;20400;-75
2022/04/19 15:25:49;;;;;;;3.50;1.33;;;21.90;22.30;;;;;;5053728;28;20466;-75
2022/04/19 15:28:35;;;;;;;2.80;1.67;;;21.80;22.70;;;;;;5049921;28;20579;-75
2022/04/19 15:31:21;;;;;;;2.40;1.37;;;21.90;23.60;;;;;;5055657;28;20952;-75
2022/04/19 15:34:07;;;;;;;2.90;1.53;;;21.90;22.60;;;;;;5053852;28;20936;-76